Time;durP1;ratioP1;P1;durP2;ratioP2;P2;SDS_P1;SDS_P2;PMS_P1;PMS_P2;Temp;Humidity;BMP_temperature;BMP_pressure;BME280_temperature;BME280_humidity;BME280_pressure;Samples;Min_cycle;Max_cycle;Signal;HPM_P1;HPM_P2
2022/01/23 00:00:01;;;;;;;30.40;16.55;;;1.10;99.90;;;;;;1896152;75;21040;-85
2022/01/23 00:02:42;;;;;;;31.73;17.35;;;1.10;99.90;;;;;;1882733;75;21056;-85
2022/01/23 00:05:39;;;;;;;30.62;17.80;;;1.20;99.90;;;;;;1881924;75;21055;-85
2022/01/23 00:11:10;;;;;;;26.00;15.48;;;1.10;99.90;;;;;;1938024;72;22178;-85
2022/01/23 00:17:20;;;;;;;22.32;13.72;;;1.20;99.90;;;;;;1889519;75;21105;-86
2022/01/23 00:20:13;;;;;;;20.32;12.90;;;1.10;99.90;;;;;;1912149;75;21180;-85
2022/01/23 00:23:25;;;;;;;23.77;13.60;;;1.10;99.90;;;;;;1893142;75;21163;-85
2022/01/23 00:32:18;;;;;;;24.00;14.40;;;1.00;99.90;;;;;;1941645;72;22070;-86
2022/01/23 00:38:01;;;;;;;21.02;13.10;;;1.00;99.90;;;;;;1948857;72;22221;-85
2022/01/23 00:43:42;;;;;;;20.43;12.47;;;1.00;99.90;;;;;;1945000;72;22110;-86
2022/01/23 00:46:35;;;;;;;15.80;11.33;;;1.00;99.90;;;;;;1907703;75;21075;-85
2022/01/23 00:49:27;;;;;;;18.12;11.57;;;1.00;99.90;;;;;;1908955;75;21124;-85
2022/01/23 00:52:27;;;;;;;17.70;11.57;;;0.90;99.90;;;;;;1904601;75;21341;-87
2022/01/23 00:58:42;;;;;;;17.67;10.32;;;0.90;99.90;;;;;;1935381;72;22331;-86
2022/01/23 01:04:22;;;;;;;16.42;11.03;;;0.80;99.90;;;;;;1943546;72;22194;-86
2022/01/23 01:07:14;;;;;;;17.23;10.58;;;0.90;99.90;;;;;;1906594;75;21071;-86
2022/01/23 01:10:15;;;;;;;19.12;10.63;;;0.80;99.90;;;;;;1896939;75;21114;-85
2022/01/23 01:13:05;;;;;;;19.77;10.85;;;0.70;99.90;;;;;;1888024;75;21064;-85
2022/01/23 01:16:24;;;;;;;17.80;11.10;;;0.70;99.90;;;;;;1894395;75;21208;-87
2022/01/23 01:30:39;;;;;;;18.52;12.00;;;0.60;99.90;;;;;;1926480;73;21129;-84
2022/01/23 01:33:36;;;;;;;20.62;12.23;;;0.60;99.90;;;;;;1928756;73;21649;-84
2022/01/23 01:36:35;;;;;;;21.00;13.60;;;0.60;99.90;;;;;;1935718;73;21173;-84
2022/01/23 01:42:03;;;;;;;26.27;15.93;;;0.70;99.90;;;;;;1943498;72;22319;-86
2022/01/23 01:44:56;;;;;;;24.95;16.00;;;0.70;99.90;;;;;;1930109;73;21135;-86
2022/01/23 01:50:47;;;;;;;21.25;14.05;;;0.60;99.90;;;;;;1943208;72;22920;-85
2022/01/23 01:56:20;;;;;;;21.95;14.58;;;0.60;99.90;;;;;;1932511;72;22197;-86
2022/01/23 01:59:33;;;;;;;21.10;13.22;;;0.60;99.90;;;;;;1884268;75;21171;-85
2022/01/23 02:03:06;;;;;;;21.62;13.45;;;0.50;99.90;;;;;;1886205;75;21128;-85
2022/01/23 02:08:27;;;;;;;20.60;13.25;;;0.60;99.90;;;;;;1932811;72;22243;-86
2022/01/23 02:11:24;;;;;;;21.55;13.15;;;0.50;99.90;;;;;;1896872;75;21099;-85
2022/01/23 02:14:28;;;;;;;19.05;13.28;;;0.60;99.90;;;;;;1902664;75;21103;-85
2022/01/23 02:17:23;;;;;;;20.60;13.18;;;0.60;99.90;;;;;;1911196;75;21100;-86
2022/01/23 02:23:04;;;;;;;18.25;13.30;;;0.60;99.90;;;;;;1956198;72;22326;-86
2022/01/23 02:50:53;;;;;;;24.40;13.95;;;0.30;99.90;;;;;;1968063;72;22302;-86
2022/01/23 02:54:07;;;;;;;23.70;14.15;;;0.30;99.90;;;;;;1917329;75;21058;-86
2022/01/23 02:56:53;;;;;;;22.95;14.13;;;0.20;99.90;;;;;;1951068;73;21097;-87
2022/01/23 03:02:35;;;;;;;22.52;14.93;;;0.10;99.90;;;;;;1927328;72;22265;-86
2022/01/23 03:05:34;;;;;;;25.15;15.63;;;0.10;99.90;;;;;;1860734;74;21094;-86
2022/01/23 03:08:25;;;;;;;26.12;16.52;;;0.10;99.90;;;;;;1912675;75;21106;-85
2022/01/23 03:11:43;;;;;;;25.30;15.03;;;0.20;99.90;;;;;;1887880;75;21652;-87
2022/01/23 03:26:33;;;;;;;24.45;15.53;;;0.20;99.90;;;;;;1885097;75;21115;-85
2022/01/23 03:29:24;;;;;;;24.18;15.20;;;0.20;99.90;;;;;;1884820;75;21090;-85
2022/01/23 03:32:20;;;;;;;21.07;14.30;;;0.10;99.90;;;;;;1886224;75;21110;-86
2022/01/23 03:35:10;;;;;;;21.40;13.60;;;0.10;99.90;;;;;;1886391;75;21110;-85
2022/01/23 03:38:11;;;;;;;22.42;13.90;;;0.10;99.90;;;;;;1900744;75;21055;-85
2022/01/23 03:41:03;;;;;;;21.12;12.88;;;0.10;99.90;;;;;;1884538;76;21168;-85
2022/01/23 03:43:57;;;;;;;20.50;13.30;;;0.10;99.90;;;;;;1905250;75;21055;-85
2022/01/23 03:47:01;;;;;;;18.92;12.73;;;0.10;99.90;;;;;;1884682;75;21059;-85
2022/01/23 03:49:50;;;;;;;17.60;12.25;;;0.10;99.90;;;;;;1914935;75;21063;-85
2022/01/23 03:55:23;;;;;;;18.37;12.33;;;0.20;99.90;;;;;;1955258;72;22318;-86
2022/01/23 03:58:15;;;;;;;19.17;13.35;;;0.20;99.90;;;;;;1914008;74;21095;-85
2022/01/23 04:01:10;;;;;;;22.73;14.87;;;0.20;99.90;;;;;;1914116;74;21102;-85
2022/01/23 04:04:10;;;;;;;24.32;14.05;;;0.20;99.90;;;;;;1908119;74;21124;-85
2022/01/23 04:06:56;;;;;;;26.57;16.10;;;0.20;99.90;;;;;;1905204;74;21146;-85
2022/01/23 04:09:49;;;;;;;25.50;16.48;;;0.20;99.90;;;;;;1927390;74;21047;-85
2022/01/23 04:12:53;;;;;;;26.52;16.37;;;0.20;99.90;;;;;;1926352;74;21197;-86
2022/01/23 04:15:48;;;;;;;23.92;14.23;;;0.20;99.90;;;;;;1904973;75;21146;-86
2022/01/23 04:34:19;;;;;;;17.32;12.00;;;0.00;99.90;;;;;;1945130;72;22173;-86
2022/01/23 04:47:50;;;;;;;18.67;11.68;;;-0.10;99.90;;;;;;1860797;75;21596;-85
2022/01/23 05:02:45;;;;;;;18.73;12.58;;;-0.20;99.90;;;;;;1934714;73;21176;-86
2022/01/23 05:08:18;;;;;;;19.05;12.28;;;-0.20;99.90;;;;;;1976002;72;20131;-86
2022/01/23 05:11:12;;;;;;;21.30;12.23;;;-0.20;99.90;;;;;;1951315;73;21047;-86
2022/01/23 05:14:26;;;;;;;19.73;12.60;;;-0.20;99.90;;;;;;1924794;72;21157;-86
2022/01/23 05:17:14;;;;;;;19.23;12.33;;;-0.20;99.90;;;;;;1951630;72;21058;-85
2022/01/23 05:20:08;;;;;;;18.07;12.25;;;-0.20;99.90;;;;;;1951091;73;21117;-85
2022/01/23 05:23:03;;;;;;;21.37;12.47;;;-0.30;99.90;;;;;;1955171;72;21470;-85
2022/01/23 05:25:54;;;;;;;19.25;12.28;;;-0.30;99.90;;;;;;1964239;72;21070;-85
2022/01/23 05:28:49;;;;;;;21.77;13.53;;;-0.30;99.90;;;;;;1951412;73;21094;-85
2022/01/23 05:31:43;;;;;;;22.85;15.23;;;-0.30;99.90;;;;;;1969644;72;21071;-86
2022/01/23 05:34:35;;;;;;;24.72;16.93;;;-0.30;99.90;;;;;;1951216;73;21110;-85
2022/01/23 05:40:18;;;;;;;20.40;14.38;;;-0.50;99.90;;;;;;1954556;72;22139;-86
2022/01/23 05:43:11;;;;;;;22.05;14.20;;;-0.40;99.90;;;;;;1913483;75;21190;-87
2022/01/23 05:48:42;;;;;;;24.98;18.32;;;-0.40;99.90;;;;;;1967718;72;22572;-86
2022/01/23 05:51:35;;;;;;;27.20;18.15;;;-0.30;99.90;;;;;;1916654;74;21095;-86
2022/01/23 05:54:29;;;;;;;22.45;16.10;;;-0.40;99.90;;;;;;1929993;74;21059;-85
2022/01/23 06:00:01;;;;;;;19.40;13.48;;;-0.40;99.90;;;;;;1946412;72;22266;-87
2022/01/23 06:02:55;;;;;;;20.80;13.40;;;-0.40;99.90;;;;;;1904443;74;21168;-85
2022/01/23 06:05:48;;;;;;;20.88;13.40;;;-0.30;99.90;;;;;;1911965;75;21200;-86
2022/01/23 06:08:41;;;;;;;17.40;13.13;;;-0.30;99.90;;;;;;1895442;75;21121;-87
2022/01/23 06:14:20;;;;;;;16.42;11.88;;;-0.40;99.90;;;;;;1970550;72;22181;-86
2022/01/23 06:17:12;;;;;;;18.90;12.55;;;-0.40;99.90;;;;;;1917710;75;21106;-86
2022/01/23 06:23:02;;;;;;;20.60;11.97;;;-0.40;99.90;;;;;;1932408;72;22154;-86
2022/01/23 06:26:04;;;;;;;15.83;9.70;;;-0.40;99.90;;;;;;1809921;74;21159;-85
2022/01/23 06:29:03;;;;;;;16.75;10.20;;;-0.40;99.90;;;;;;1914244;75;21114;-87
2022/01/23 06:31:57;;;;;;;19.82;12.60;;;-0.50;99.90;;;;;;1896317;75;21141;-85
2022/01/23 06:34:53;;;;;;;18.92;12.35;;;-0.50;99.90;;;;;;1891580;75;21066;-85
2022/01/23 06:37:48;;;;;;;19.40;10.70;;;-0.50;99.90;;;;;;1884593;76;21060;-86
2022/01/23 06:40:40;;;;;;;16.95;10.78;;;-0.50;99.90;;;;;;1900669;75;21080;-85
2022/01/23 06:46:16;;;;;;;15.30;9.43;;;-0.60;99.90;;;;;;1941237;72;22153;-86
2022/01/23 06:51:53;;;;;;;14.55;10.05;;;-0.80;99.90;;;;;;1943307;72;22215;-86
2022/01/23 06:54:46;;;;;;;13.68;8.75;;;-0.80;99.90;;;;;;1912614;75;21035;-85
2022/01/23 06:57:39;;;;;;;15.95;9.40;;;-0.80;99.90;;;;;;1908213;75;21114;-87
2022/01/23 07:03:16;;;;;;;21.37;15.35;;;-0.80;99.90;;;;;;1908133;72;28162;-85
2022/01/23 07:06:12;;;;;;;16.80;12.05;;;-0.60;99.90;;;;;;1896682;75;21059;-85
2022/01/23 07:09:09;;;;;;;17.07;11.40;;;-0.50;99.90;;;;;;1890271;75;21059;-85
2022/01/23 07:12:08;;;;;;;17.55;10.63;;;-0.60;99.90;;;;;;1900245;75;21195;-87
2022/01/23 07:17:58;;;;;;;16.45;10.70;;;-0.70;99.90;;;;;;1942540;72;22194;-88
2022/01/23 07:20:51;;;;;;;14.95;10.23;;;-0.70;99.90;;;;;;1894876;75;21100;-86
2022/01/23 07:26:26;;;;;;;15.00;10.88;;;-0.70;99.90;;;;;;1952552;72;22237;-86
2022/01/23 07:29:31;;;;;;;15.80;10.98;;;-0.70;99.90;;;;;;1889833;75;21091;-85
2022/01/23 07:35:04;;;;;;;17.70;11.63;;;-0.70;99.90;;;;;;1910580;72;22200;-86
2022/01/23 07:37:57;;;;;;;17.77;12.05;;;-0.70;99.90;;;;;;1906118;75;21133;-86
2022/01/23 07:46:43;;;;;;;16.80;11.38;;;-0.60;99.90;;;;;;1941451;72;22165;-86
2022/01/23 07:49:37;;;;;;;16.85;11.03;;;-0.60;99.90;;;;;;1917163;75;21050;-86
2022/01/23 07:52:35;;;;;;;20.85;12.05;;;-0.50;99.90;;;;;;1895903;74;21089;-87
2022/01/23 07:55:35;;;;;;;17.98;11.30;;;-0.40;99.90;;;;;;1915556;74;21121;-87
2022/01/23 07:58:40;;;;;;;18.70;12.30;;;-0.40;99.90;;;;;;1835688;74;21118;-86
2022/01/23 08:01:50;;;;;;;15.70;11.35;;;-0.40;99.90;;;;;;1912863;75;21063;-87
2022/01/23 08:07:39;;;;;;;16.52;11.70;;;-0.50;99.90;;;;;;1936418;72;22253;-86
2022/01/23 08:10:39;;;;;;;17.77;12.05;;;-0.50;99.90;;;;;;1902504;75;21055;-86
2022/01/23 08:13:30;;;;;;;18.87;11.63;;;-0.40;99.90;;;;;;1895524;75;21103;-85
2022/01/23 08:19:00;;;;;;;18.45;12.50;;;-0.40;99.90;;;;;;1963428;72;22252;-85
2022/01/23 08:21:52;;;;;;;18.52;12.33;;;-0.40;99.90;;;;;;1917555;75;21206;-86
2022/01/23 08:24:44;;;;;;;18.87;11.75;;;-0.30;99.90;;;;;;1917411;75;21304;-86
2022/01/23 08:27:36;;;;;;;17.32;11.53;;;-0.20;99.90;;;;;;1882582;76;21059;-88
2022/01/23 08:33:06;;;;;;;19.12;12.33;;;-0.10;99.90;;;;;;1946881;72;22221;-86
2022/01/23 08:35:57;;;;;;;19.02;13.55;;;0.00;99.90;;;;;;1884667;75;21201;-85
2022/01/23 08:38:51;;;;;;;18.32;12.25;;;0.10;99.90;;;;;;1905091;75;21204;-85
2022/01/23 08:44:33;;;;;;;18.52;12.13;;;0.10;99.90;;;;;;1928144;72;22149;-86
2022/01/23 08:47:24;;;;;;;21.27;13.78;;;0.20;99.90;;;;;;1906833;75;21083;-85
2022/01/23 08:50:15;;;;;;;19.73;12.55;;;0.30;99.90;;;;;;1897055;75;21205;-85
2022/01/23 08:53:07;;;;;;;17.77;12.45;;;0.40;99.90;;;;;;1901901;75;21147;-86
2022/01/23 08:55:59;;;;;;;22.00;13.75;;;0.40;99.90;;;;;;1894042;75;21055;-85
2022/01/23 09:01:30;;;;;;;19.23;13.48;;;0.50;99.90;;;;;;1965977;72;22267;-86
2022/01/23 09:04:22;;;;;;;22.05;14.28;;;0.50;99.90;;;;;;1935754;73;21742;-85
2022/01/23 09:07:14;;;;;;;17.98;13.15;;;0.50;99.90;;;;;;1928309;73;21143;-85
2022/01/23 09:10:06;;;;;;;21.50;14.45;;;0.50;99.90;;;;;;1884728;76;21112;-88
2022/01/23 09:13:10;;;;;;;20.70;13.03;;;0.50;99.90;;;;;;1908048;73;21058;-85
2022/01/23 09:16:00;;;;;;;21.07;13.50;;;0.50;99.90;;;;;;1934158;73;21063;-86
2022/01/23 09:18:59;;;;;;;18.50;12.43;;;0.60;99.90;;;;;;1914139;73;21076;-86
2022/01/23 09:21:52;;;;;;;16.25;11.78;;;0.60;99.90;;;;;;1914571;75;21137;-85
2022/01/23 09:24:44;;;;;;;15.70;11.15;;;0.70;99.90;;;;;;1898727;73;21213;-86
2022/01/23 09:27:38;;;;;;;16.07;11.20;;;0.70;99.90;;;;;;1947818;73;21091;-80
2022/01/23 09:30:34;;;;;;;16.10;11.48;;;0.80;99.90;;;;;;1899995;75;21161;-80
2022/01/23 09:36:02;;;;;;;19.15;12.00;;;0.90;99.90;;;;;;1975956;72;22119;-77
2022/01/23 09:38:53;;;;;;;15.88;11.22;;;1.00;99.90;;;;;;1928557;73;21059;-77
2022/01/23 09:41:48;;;;;;;18.52;11.55;;;1.00;99.90;;;;;;1923266;73;21098;-78
2022/01/23 09:44:42;;;;;;;14.15;10.48;;;1.10;99.90;;;;;;1925603;73;21047;-77
2022/01/23 09:47:36;;;;;;;19.17;11.18;;;1.10;99.90;;;;;;1930172;73;21191;-77
2022/01/23 09:50:28;;;;;;;16.35;10.70;;;1.20;99.90;;;;;;1940455;73;21100;-81
2022/01/23 09:53:21;;;;;;;15.40;10.82;;;1.30;99.90;;;;;;1917775;75;21541;-79
2022/01/23 09:56:17;;;;;;;14.45;9.85;;;1.30;99.90;;;;;;1921596;73;21191;-79
2022/01/23 10:01:56;;;;;;;14.63;10.20;;;1.40;99.90;;;;;;1952017;72;22256;-81
2022/01/23 10:04:48;;;;;;;20.75;11.22;;;1.40;99.90;;;;;;1924557;73;21103;-79
2022/01/23 10:07:42;;;;;;;16.82;10.68;;;1.50;99.90;;;;;;1933015;73;21117;-78
2022/01/23 10:10:38;;;;;;;16.20;11.33;;;1.50;99.90;;;;;;1880783;76;21097;-79
2022/01/23 10:13:31;;;;;;;20.10;12.53;;;1.50;99.90;;;;;;1926944;73;21050;-81
2022/01/23 10:16:27;;;;;;;19.07;12.28;;;1.60;99.90;;;;;;1921826;73;21187;-80
2022/01/23 10:19:19;;;;;;;21.15;13.35;;;1.70;99.90;;;;;;1902603;75;21149;-79
2022/01/23 10:22:12;;;;;;;18.23;11.53;;;1.70;99.90;;;;;;1917486;73;21154;-80
2022/01/23 10:25:10;;;;;;;16.00;11.38;;;1.80;99.90;;;;;;1884472;75;21102;-78
2022/01/23 10:28:06;;;;;;;19.25;12.10;;;1.90;99.90;;;;;;1883232;76;21095;-78
2022/01/23 10:31:03;;;;;;;19.48;11.53;;;2.00;99.90;;;;;;1917479;75;21087;-79
2022/01/23 10:33:55;;;;;;;14.83;10.73;;;2.00;99.90;;;;;;1925014;73;22271;-81
2022/01/23 10:39:42;;;;;;;18.70;11.78;;;2.10;99.90;;;;;;1963493;72;22190;-80
2022/01/23 10:48:58;;;;;;;16.23;10.25;;;2.30;99.90;;;;;;1856871;76;21075;-81
2022/01/23 10:51:52;;;;;;;16.30;11.93;;;2.40;99.90;;;;;;1928468;73;21047;-84
2022/01/23 10:54:45;;;;;;;15.28;9.85;;;2.40;99.90;;;;;;1930551;73;21127;-85
2022/01/23 10:57:40;;;;;;;13.95;9.33;;;2.50;99.90;;;;;;1928313;73;21191;-84
2022/01/23 11:00:35;;;;;;;15.08;9.50;;;2.50;99.90;;;;;;1927281;73;21492;-84
2022/01/23 11:03:29;;;;;;;15.90;10.48;;;2.50;99.90;;;;;;1917979;73;21055;-84
2022/01/23 11:06:21;;;;;;;13.20;9.45;;;2.70;99.90;;;;;;1916524;73;21654;-84
2022/01/23 11:09:13;;;;;;;14.78;9.85;;;2.80;99.90;;;;;;1935648;73;21097;-84
2022/01/23 11:12:28;;;;;;;14.95;10.60;;;2.80;99.90;;;;;;1927688;73;21125;-84
2022/01/23 11:18:38;;;;;;;14.53;9.73;;;3.00;99.90;;;;;;1917355;75;21172;-84
2022/01/23 11:21:30;;;;;;;14.23;9.90;;;3.00;99.90;;;;;;1926421;73;21138;-83
2022/01/23 11:24:24;;;;;;;13.18;8.93;;;3.10;99.90;;;;;;1924398;73;21168;-86
2022/01/23 11:27:19;;;;;;;12.10;8.50;;;3.20;99.90;;;;;;1917374;75;21113;-84
2022/01/23 11:30:13;;;;;;;11.50;8.08;;;3.30;99.90;;;;;;1917479;75;21087;-84
2022/01/23 11:33:05;;;;;;;10.88;8.73;;;3.30;99.90;;;;;;1917563;75;21522;-84
2022/01/23 11:35:57;;;;;;;13.70;9.00;;;3.40;99.90;;;;;;1927367;73;21117;-85
2022/01/23 11:38:52;;;;;;;15.18;10.70;;;3.50;99.90;;;;;;1922588;73;21144;-84
2022/01/23 11:53:47;;;;;;;16.32;10.63;;;3.80;99.90;;;;;;1928347;72;22216;-86
2022/01/23 11:59:32;;;;;;;14.00;10.85;;;3.90;99.90;;;;;;1921285;72;22282;-86
2022/01/23 12:02:32;;;;;;;19.70;11.85;;;4.00;99.90;;;;;;1897092;73;21102;-85
2022/01/23 12:05:26;;;;;;;20.30;10.82;;;4.00;99.90;;;;;;1890403;73;21247;-86
2022/01/23 12:08:27;;;;;;;14.28;10.53;;;4.00;99.90;;;;;;1911967;75;21133;-86
2022/01/23 12:20:36;;;;;;;12.43;7.75;;;4.40;99.90;;;;;;1932349;72;22213;-81
2022/01/23 12:23:28;;;;;;;11.93;7.80;;;4.40;99.90;;;;;;1906086;75;21176;-84
2022/01/23 12:26:22;;;;;;;12.65;7.67;;;4.50;99.90;;;;;;1917257;75;21503;-81
2022/01/23 12:29:16;;;;;;;11.88;7.87;;;4.50;99.90;;;;;;1884515;76;21059;-82
2022/01/23 12:32:26;;;;;;;12.55;8.00;;;4.60;99.90;;;;;;1906430;75;21128;-80
2022/01/23 12:35:21;;;;;;;12.53;8.20;;;4.60;99.90;;;;;;1884611;75;21042;-82
2022/01/23 12:38:15;;;;;;;11.88;8.23;;;4.60;99.90;;;;;;1890103;75;21162;-82
2022/01/23 12:41:23;;;;;;;15.75;9.15;;;4.60;99.90;;;;;;1895919;75;21113;-81
2022/01/23 12:44:35;;;;;;;15.03;8.53;;;4.70;99.90;;;;;;1904386;75;21167;-81
2022/01/23 12:50:07;;;;;;;11.38;8.23;;;4.90;99.90;;;;;;1976146;72;22196;-81
2022/01/23 12:52:58;;;;;;;15.20;9.75;;;4.90;99.90;;;;;;1922198;73;21117;-81
2022/01/23 12:56:04;;;;;;;16.07;9.65;;;4.90;99.90;;;;;;1917133;75;21105;-82
2022/01/23 12:59:04;;;;;;;12.35;9.33;;;5.10;99.90;;;;;;1917170;75;21113;-82
2022/01/23 13:01:59;;;;;;;14.87;9.18;;;5.00;99.90;;;;;;1917435;75;21160;-81
2022/01/23 13:04:51;;;;;;;16.42;10.95;;;5.00;99.90;;;;;;1917105;75;21161;-83
2022/01/23 13:07:53;;;;;;;12.87;9.57;;;5.00;99.90;;;;;;1917115;73;21105;-82
2022/01/23 13:10:56;;;;;;;13.62;9.70;;;5.00;99.90;;;;;;1921267;73;21137;-81
2022/01/23 13:13:51;;;;;;;12.73;9.30;;;5.10;99.90;;;;;;1927288;73;21367;-82
2022/01/23 13:16:47;;;;;;;13.90;9.90;;;5.10;99.90;;;;;;1917685;75;21136;-82
2022/01/23 13:26:19;;;;;;;12.65;9.40;;;5.10;99.90;;;;;;1917669;75;21186;-82
2022/01/23 13:32:40;;;;;;;14.40;9.60;;;5.10;99.90;;;;;;1933011;73;21105;-81
2022/01/23 13:35:33;;;;;;;14.95;10.08;;;5.20;99.90;;;;;;1928859;73;21063;-81
2022/01/23 13:38:22;;;;;;;14.70;10.28;;;5.30;99.90;;;;;;1923917;73;21054;-81
2022/01/23 13:41:23;;;;;;;14.20;9.13;;;5.30;99.90;;;;;;1945820;73;21062;-81
2022/01/23 13:51:27;;;;;;;13.40;9.60;;;5.40;99.90;;;;;;1906891;73;21082;-82
2022/01/23 13:57:54;;;;;;;14.65;9.55;;;5.40;99.90;;;;;;1890731;73;21091;-81
2022/01/23 14:00:33;;;;;;;13.62;9.10;;;5.40;99.90;;;;;;1916937;75;21158;-81
2022/01/23 14:03:25;;;;;;;16.05;10.93;;;5.50;99.90;;;;;;1916458;75;21140;-81
2022/01/23 14:06:16;;;;;;;14.33;10.20;;;5.50;99.90;;;;;;1916876;75;21104;-82
2022/01/23 14:09:10;;;;;;;14.15;10.58;;;5.60;99.90;;;;;;1916735;75;21094;-81
2022/01/23 14:12:08;;;;;;;16.10;10.48;;;5.60;99.90;;;;;;1879645;76;21136;-82
2022/01/23 14:15:04;;;;;;;13.90;10.15;;;5.70;99.90;;;;;;1916697;75;21202;-84
2022/01/23 14:18:02;;;;;;;15.20;10.03;;;5.70;99.90;;;;;;1916737;75;21472;-83
2022/01/23 14:20:59;;;;;;;12.75;9.33;;;5.80;99.90;;;;;;1916866;75;21140;-82
2022/01/23 14:23:56;;;;;;;14.38;9.60;;;5.80;99.90;;;;;;1916498;75;21070;-81
2022/01/23 14:26:58;;;;;;;12.35;8.90;;;5.90;99.90;;;;;;1916645;75;21208;-81
2022/01/23 14:29:52;;;;;;;12.23;9.58;;;5.90;99.90;;;;;;1916588;75;21091;-81
2022/01/23 14:32:54;;;;;;;12.07;9.05;;;6.00;99.90;;;;;;1916498;75;21129;-82
2022/01/23 14:35:46;;;;;;;13.68;9.33;;;6.00;99.90;;;;;;1927673;73;21143;-83
2022/01/23 14:38:38;;;;;;;14.68;10.50;;;6.00;99.90;;;;;;1944290;73;21047;-82
2022/01/23 14:41:33;;;;;;;14.40;8.70;;;6.00;99.90;;;;;;1917856;73;21156;-82
2022/01/23 14:44:27;;;;;;;12.07;8.98;;;6.10;99.90;;;;;;1931251;73;21062;-82
2022/01/23 14:47:20;;;;;;;12.37;8.30;;;6.10;99.90;;;;;;1917209;75;21169;-83
2022/01/23 14:50:12;;;;;;;13.35;8.98;;;6.00;99.90;;;;;;1912399;75;21141;-81
2022/01/23 14:53:13;;;;;;;15.20;10.03;;;6.10;99.90;;;;;;1904449;74;21241;-82
2022/01/23 14:56:07;;;;;;;12.58;9.58;;;6.10;99.90;;;;;;1926901;74;21055;-81
2022/01/23 14:58:59;;;;;;;14.53;10.50;;;6.10;99.90;;;;;;1916871;75;21151;-82
2022/01/23 15:01:51;;;;;;;15.28;11.73;;;6.10;99.90;;;;;;1904255;75;21099;-81
2022/01/23 15:04:46;;;;;;;16.23;11.10;;;6.10;99.90;;;;;;1904717;75;21048;-84
2022/01/23 15:11:03;;;;;;;15.32;10.20;;;6.10;99.90;;;;;;1903671;75;21136;-83
2022/01/23 15:14:01;;;;;;;17.67;11.90;;;6.10;99.90;;;;;;1888532;75;21063;-82
2022/01/23 15:16:58;;;;;;;20.35;12.30;;;6.00;99.90;;;;;;1848307;77;21088;-82
2022/01/23 15:19:54;;;;;;;16.27;12.03;;;6.00;99.90;;;;;;1883604;75;21114;-82
2022/01/23 15:22:51;;;;;;;15.30;11.08;;;5.90;99.90;;;;;;1836604;78;21111;-81
2022/01/23 15:25:50;;;;;;;16.17;10.30;;;5.90;99.90;;;;;;1868122;77;21118;-83
2022/01/23 15:29:03;;;;;;;15.05;11.12;;;5.80;99.90;;;;;;1924545;73;21178;-82
2022/01/23 15:32:05;;;;;;;16.85;11.22;;;5.80;99.90;;;;;;1921952;73;21032;-83
2022/01/23 15:34:59;;;;;;;16.50;11.12;;;5.70;99.90;;;;;;1886833;75;21168;-82
2022/01/23 15:37:55;;;;;;;17.50;10.93;;;5.70;99.90;;;;;;1916486;75;21117;-82
2022/01/23 15:40:58;;;;;;;15.35;11.60;;;5.60;99.90;;;;;;1915991;75;21105;-82
2022/01/23 15:43:55;;;;;;;16.97;10.95;;;5.60;99.90;;;;;;1912021;75;21433;-82
2022/01/23 15:46:50;;;;;;;16.15;11.75;;;5.60;99.90;;;;;;1928574;74;21149;-82
2022/01/23 15:53:00;;;;;;;18.02;12.40;;;5.50;99.90;;;;;;1903949;75;21122;-82
2022/01/23 15:55:58;;;;;;;17.27;12.45;;;5.40;99.90;;;;;;1904022;75;21047;-82
2022/01/23 15:58:55;;;;;;;18.48;13.25;;;5.40;99.90;;;;;;1862590;77;21072;-81
2022/01/23 16:01:52;;;;;;;18.62;12.75;;;5.40;99.90;;;;;;1883922;76;21197;-82
2022/01/23 16:04:47;;;;;;;16.20;12.00;;;5.30;99.90;;;;;;1903952;75;21099;-82
2022/01/23 16:07:40;;;;;;;19.80;13.80;;;5.30;99.90;;;;;;1904204;74;21154;-82
2022/01/23 16:10:32;;;;;;;17.60;12.58;;;5.30;99.90;;;;;;1867195;77;21106;-82
2022/01/23 16:13:24;;;;;;;18.82;12.70;;;5.20;99.90;;;;;;1869288;77;21093;-82
2022/01/23 16:16:16;;;;;;;20.35;13.53;;;5.20;99.90;;;;;;1868984;77;21130;-81
2022/01/23 16:19:07;;;;;;;16.62;12.75;;;5.20;99.90;;;;;;1933007;74;21166;-82
2022/01/23 16:22:01;;;;;;;17.70;12.53;;;5.10;99.90;;;;;;1916547;75;21161;-83
2022/01/23 16:24:54;;;;;;;18.65;12.70;;;5.00;99.90;;;;;;1904460;75;21581;-82
2022/01/23 16:27:49;;;;;;;17.15;12.68;;;5.00;99.90;;;;;;1903941;75;21185;-82
2022/01/23 16:30:50;;;;;;;16.67;12.30;;;5.00;99.90;;;;;;1904045;75;21166;-82
2022/01/23 16:33:53;;;;;;;19.30;13.13;;;4.90;99.90;;;;;;1939294;73;21068;-82
2022/01/23 16:36:41;;;;;;;18.12;12.47;;;4.90;99.90;;;;;;1905848;74;21168;-82
2022/01/23 16:39:35;;;;;;;20.32;12.88;;;4.90;99.90;;;;;;1918068;74;21145;-82
2022/01/23 16:42:28;;;;;;;21.30;13.03;;;4.80;99.90;;;;;;1916472;75;21166;-82
2022/01/23 16:49:14;;;;;;;19.12;12.95;;;4.80;99.90;;;;;;1916664;75;21066;-82
2022/01/23 16:52:11;;;;;;;17.62;12.80;;;4.60;99.90;;;;;;1916433;75;21152;-83
2022/01/23 16:55:12;;;;;;;20.00;13.88;;;4.50;99.90;;;;;;1916761;73;21537;-82
2022/01/23 16:58:04;;;;;;;22.50;13.03;;;4.50;99.90;;;;;;1916774;73;21335;-82
2022/01/23 17:00:58;;;;;;;18.10;13.20;;;4.40;99.90;;;;;;1934216;73;21043;-81
2022/01/23 17:03:57;;;;;;;21.15;14.63;;;4.30;99.90;;;;;;1916848;75;21043;-94
2022/01/23 17:06:54;;;;;;;18.07;13.35;;;4.30;99.90;;;;;;1911829;73;21097;-88
2022/01/23 17:09:49;;;;;;;24.77;15.83;;;4.30;99.90;;;;;;1917050;75;21146;-87
2022/01/23 17:12:44;;;;;;;21.68;14.60;;;4.20;99.90;;;;;;1916805;73;21124;-87
2022/01/23 17:15:43;;;;;;;21.87;13.93;;;4.20;99.90;;;;;;1916477;75;21180;-88
2022/01/23 17:18:42;;;;;;;20.92;13.93;;;4.20;99.90;;;;;;1916579;75;21094;-88
2022/01/23 17:21:33;;;;;;;18.23;13.83;;;4.10;99.90;;;;;;1934906;73;21098;-86
2022/01/23 17:24:30;;;;;;;21.70;14.20;;;4.10;99.90;;;;;;1921936;73;21098;-87
2022/01/23 17:27:23;;;;;;;21.90;13.85;;;4.10;99.90;;;;;;1926872;73;21130;-87
2022/01/23 17:30:18;;;;;;;19.37;13.93;;;4.00;99.90;;;;;;1916331;75;21447;-86
2022/01/23 17:33:11;;;;;;;19.60;13.03;;;4.00;99.90;;;;;;1934885;73;21066;-87
2022/01/23 17:36:06;;;;;;;20.27;14.63;;;4.00;99.90;;;;;;1934899;73;21127;-87
2022/01/23 17:38:59;;;;;;;25.52;15.70;;;3.90;99.90;;;;;;1931618;73;21102;-87
2022/01/23 17:41:51;;;;;;;23.85;15.18;;;3.90;99.90;;;;;;1918472;73;21115;-87
2022/01/23 17:44:47;;;;;;;17.87;13.10;;;3.90;99.90;;;;;;1931215;73;21063;-87
2022/01/23 17:47:56;;;;;;;24.00;14.25;;;3.90;99.90;;;;;;1921408;73;21105;-87
2022/01/23 17:53:26;;;;;;;20.88;14.47;;;3.80;99.90;;;;;;1936981;72;22214;-87
2022/01/23 17:56:20;;;;;;;21.82;14.13;;;3.70;99.90;;;;;;1898947;75;21048;-88
2022/01/23 17:59:34;;;;;;;19.32;14.20;;;3.70;99.90;;;;;;1896173;75;21047;-88
2022/01/23 18:02:27;;;;;;;23.22;14.65;;;3.70;99.90;;;;;;1857916;77;21150;-88
2022/01/23 18:08:08;;;;;;;21.52;15.65;;;3.70;99.90;;;;;;1924661;72;22342;-88
2022/01/23 18:13:57;;;;;;;22.32;13.50;;;3.70;99.90;;;;;;1941782;72;22276;-87
2022/01/23 18:17:02;;;;;;;20.57;13.72;;;3.70;99.90;;;;;;1920546;73;21165;-87
2022/01/23 18:19:57;;;;;;;21.33;13.93;;;3.70;99.90;;;;;;1932296;73;21082;-88
2022/01/23 18:25:32;;;;;;;20.92;15.18;;;3.60;99.90;;;;;;1938223;72;22283;-88
2022/01/23 18:28:27;;;;;;;19.77;15.75;;;3.50;99.90;;;;;;1872716;75;21179;-88
2022/01/23 18:31:30;;;;;;;23.20;15.55;;;3.50;99.90;;;;;;1874562;75;21043;-88
2022/01/23 18:34:33;;;;;;;23.25;15.60;;;3.40;99.90;;;;;;1872973;75;21059;-87
2022/01/23 18:37:26;;;;;;;;;;;3.30;99.90;;;;;;1896842;75;21113;-88
2022/01/23 18:40:19;;;;;;;19.42;14.15;;;3.30;99.90;;;;;;1895722;75;20382;-87
2022/01/23 18:43:15;;;;;;;20.92;13.98;;;3.20;99.90;;;;;;1877400;75;21222;-88
2022/01/23 18:46:10;;;;;;;23.45;14.73;;;3.20;99.90;;;;;;1896622;75;21056;-87
2022/01/23 18:49:03;;;;;;;23.22;15.03;;;3.20;99.90;;;;;;1872606;75;21098;-87
2022/01/23 18:54:42;;;;;;;25.60;14.90;;;3.10;99.90;;;;;;1935929;72;22189;-88
2022/01/23 18:57:44;;;;;;;25.72;16.40;;;3.10;99.90;;;;;;1896430;75;21115;-88
2022/01/23 19:00:47;;;;;;;24.45;16.23;;;3.10;99.90;;;;;;1900211;75;21071;-88
2022/01/23 19:04:00;;;;;;;26.75;18.73;;;3.10;99.90;;;;;;1900749;75;21361;-88
2022/01/23 19:06:38;;;;;;;28.85;19.65;;;3.10;99.90;;;;;;1871083;75;21065;-88
2022/01/23 19:09:39;;;;;;;26.93;19.98;;;3.10;99.90;;;;;;1912351;73;21101;-88
2022/01/23 19:15:15;;;;;;;23.73;15.83;;;2.90;99.90;;;;;;1938376;72;22201;-87
2022/01/23 19:18:20;;;;;;;24.77;15.63;;;2.80;99.90;;;;;;1901082;75;21047;-88
2022/01/23 19:21:11;;;;;;;25.55;15.45;;;2.80;99.90;;;;;;1898576;75;21090;-87
2022/01/23 19:24:27;;;;;;;23.05;15.63;;;2.70;99.90;;;;;;1897194;75;21087;-87
2022/01/23 19:30:10;;;;;;;23.45;15.20;;;2.80;99.90;;;;;;1945794;72;22214;-86
2022/01/23 19:33:11;;;;;;;22.98;16.07;;;2.60;99.90;;;;;;1914893;73;21140;-88
2022/01/23 19:36:09;;;;;;;24.87;15.65;;;2.50;99.90;;;;;;1906486;75;21064;-88
2022/01/23 19:39:11;;;;;;;25.15;15.65;;;2.40;99.90;;;;;;1914261;75;21356;-87